BVR114 LFRB-EICK
Flight info
| Callsign | BVR114 |
|---|---|
| Flight time | 0h 54m |
| Altitude | 32000 |
| Route | NORBU DCT TALIG DCT ERTER ERTER1R |
| Aircraft | A319/M-SDE3FGHIRWY/LB1 |
Departure
| Time | 2026-04-23 18:56 |
|---|---|
| Airport | Brest Bretagne airport (LFRB) |
Arrival
| Time | 2026-04-23 19:50 |
|---|---|
| Airport | Cork International Airport (EICK) |
| Time | Latitude | Longitude | Altitude | Speed | Heading |
|---|---|---|---|---|---|
| 2026-04-23 18:44 | 48.44432 | -4.42098 | 321 ft | 0 kts | 191° |
| 2026-04-23 18:50 | 48.44441 | -4.42095 | 321 ft | 4 kts | 191° |
| 2026-04-23 18:50 | 48.44476 | -4.42085 | 319 ft | 4 kts | 194° |
| 2026-04-23 18:50 | 48.44502 | -4.42073 | 318 ft | 4 kts | 200° |
| 2026-04-23 18:50 | 48.44509 | -4.42069 | 319 ft | 0 kts | 200° |
| 2026-04-23 18:52 | 48.44503 | -4.42079 | 319 ft | 3 kts | 234° |
| 2026-04-23 18:53 | 48.44532 | -4.42104 | 319 ft | 8 kts | 6° |
| 2026-04-23 18:53 | 48.44601 | -4.42114 | 319 ft | 12 kts | 344° |
| 2026-04-23 18:53 | 48.44684 | -4.42183 | 319 ft | 16 kts | 297° |
| 2026-04-23 18:53 | 48.44663 | -4.42383 | 311 ft | 24 kts | 253° |
| 2026-04-23 18:54 | 48.44606 | -4.42656 | 304 ft | 31 kts | 251° |
| 2026-04-23 18:54 | 48.44530 | -4.42984 | 300 ft | 35 kts | 250° |
| 2026-04-23 18:54 | 48.44450 | -4.43346 | 304 ft | 37 kts | 251° |
| 2026-04-23 18:54 | 48.44382 | -4.43673 | 299 ft | 24 kts | 269° |
| 2026-04-23 18:55 | 48.44339 | -4.43818 | 296 ft | 16 kts | 126° |
| 2026-04-23 18:55 | 48.44368 | -4.43700 | 302 ft | 1 kts | 72° |
| 2026-04-23 18:55 | 48.44372 | -4.43683 | 299 ft | 14 kts | 72° |
| 2026-04-23 18:55 | 48.44478 | -4.43204 | 302 ft | 82 kts | 72° |
| 2026-04-23 18:56 | 48.44730 | -4.42099 | 325 ft | 139 kts | 71° |
| 2026-04-23 18:56 | 48.45054 | -4.40671 | 863 ft | 143 kts | 74° |
| 2026-04-23 18:56 | 48.45411 | -4.39274 | 1589 ft | 145 kts | 68° |
| 2026-04-23 18:56 | 48.45987 | -4.37903 | 2088 ft | 168 kts | 58° |
| 2026-04-23 18:57 | 48.46854 | -4.36548 | 2518 ft | 196 kts | 46° |
| 2026-04-23 18:57 | 48.48111 | -4.35435 | 2990 ft | 228 kts | 25° |
| 2026-04-23 18:57 | 48.49825 | -4.35350 | 3495 ft | 266 kts | 356° |
| 2026-04-23 18:57 | 48.51703 | -4.35832 | 4446 ft | 279 kts | 353° |
| 2026-04-23 18:58 | 48.53629 | -4.36391 | 5518 ft | 285 kts | 351° |
| 2026-04-23 18:58 | 48.55593 | -4.36980 | 6628 ft | 290 kts | 351° |
| 2026-04-23 18:58 | 48.57585 | -4.37574 | 7628 ft | 295 kts | 352° |
| 2026-04-23 18:58 | 48.59621 | -4.38167 | 8650 ft | 299 kts | 353° |
| 2026-04-23 18:59 | 48.61674 | -4.38758 | 9718 ft | 302 kts | 353° |
| 2026-04-23 18:59 | 48.63770 | -4.39355 | 10521 ft | 314 kts | 354° |
| 2026-04-23 18:59 | 48.65995 | -4.39976 | 10986 ft | 334 kts | 353° |
| 2026-04-23 18:59 | 48.68307 | -4.40628 | 11763 ft | 341 kts | 353° |
| 2026-04-23 19:00 | 48.70665 | -4.41305 | 12594 ft | 348 kts | 351° |
| 2026-04-23 19:00 | 48.72994 | -4.42471 | 13405 ft | 358 kts | 338° |
| 2026-04-23 19:00 | 48.75144 | -4.44456 | 14241 ft | 365 kts | 323° |
| 2026-04-23 19:00 | 48.76978 | -4.47157 | 15008 ft | 370 kts | 311° |
| 2026-04-23 19:01 | 48.78666 | -4.50136 | 15802 ft | 372 kts | 311° |
| 2026-04-23 19:01 | 48.80355 | -4.53090 | 16719 ft | 371 kts | 311° |
| 2026-04-23 19:01 | 48.82059 | -4.56047 | 17549 ft | 373 kts | 311° |
| 2026-04-23 19:01 | 48.83782 | -4.59029 | 18275 ft | 379 kts | 311° |
| 2026-04-23 19:02 | 48.85524 | -4.62043 | 18945 ft | 382 kts | 311° |
| 2026-04-23 19:02 | 48.87285 | -4.65104 | 19601 ft | 386 kts | 311° |
| 2026-04-23 19:02 | 48.89042 | -4.68176 | 20398 ft | 385 kts | 311° |
| 2026-04-23 19:02 | 48.90799 | -4.71256 | 21103 ft | 387 kts | 310° |
| 2026-04-23 19:03 | 48.92564 | -4.74356 | 21773 ft | 389 kts | 310° |
| 2026-04-23 19:03 | 48.94340 | -4.77477 | 22510 ft | 390 kts | 310° |
| 2026-04-23 19:03 | 48.96116 | -4.80599 | 23218 ft | 392 kts | 310° |
| 2026-04-23 19:03 | 48.97904 | -4.83743 | 23893 ft | 393 kts | 310° |
| 2026-04-23 19:04 | 48.99696 | -4.86898 | 24469 ft | 395 kts | 311° |
| 2026-04-23 19:04 | 49.01497 | -4.90070 | 25030 ft | 397 kts | 310° |
| 2026-04-23 19:04 | 49.03307 | -4.93268 | 25570 ft | 399 kts | 310° |
| 2026-04-23 19:04 | 49.05125 | -4.96485 | 26078 ft | 402 kts | 310° |
| 2026-04-23 19:05 | 49.06935 | -4.99689 | 26591 ft | 405 kts | 310° |
| 2026-04-23 19:05 | 49.08777 | -5.02956 | 27083 ft | 408 kts | 310° |
| 2026-04-23 19:05 | 49.10635 | -5.06258 | 27579 ft | 411 kts | 309° |
| 2026-04-23 19:05 | 49.12502 | -5.09579 | 28109 ft | 413 kts | 309° |
| 2026-04-23 19:06 | 49.14372 | -5.12912 | 28624 ft | 415 kts | 309° |
| 2026-04-23 19:06 | 49.16259 | -5.16279 | 29090 ft | 419 kts | 309° |
| 2026-04-23 19:06 | 49.18159 | -5.19663 | 29586 ft | 421 kts | 309° |
| 2026-04-23 19:06 | 49.20073 | -5.23073 | 30124 ft | 423 kts | 309° |
| 2026-04-23 19:07 | 49.21992 | -5.26497 | 30583 ft | 424 kts | 309° |
| 2026-04-23 19:07 | 49.23913 | -5.29934 | 31003 ft | 427 kts | 309° |
| 2026-04-23 19:07 | 49.25849 | -5.33408 | 31351 ft | 431 kts | 308° |
| 2026-04-23 19:07 | 49.27807 | -5.36928 | 31614 ft | 437 kts | 309° |
| 2026-04-23 19:08 | 49.29781 | -5.40481 | 31983 ft | 439 kts | 309° |
| 2026-04-23 19:08 | 49.31760 | -5.44040 | 32161 ft | 438 kts | 308° |
| 2026-04-23 19:08 | 49.33715 | -5.47554 | 32191 ft | 425 kts | 309° |
| 2026-04-23 19:08 | 49.35604 | -5.50943 | 32189 ft | 410 kts | 308° |
| 2026-04-23 19:09 | 49.37421 | -5.54214 | 32184 ft | 398 kts | 309° |
| 2026-04-23 19:09 | 49.40959 | -5.60618 | 32190 ft | 391 kts | 308° |
| 2026-04-23 19:10 | 49.44451 | -5.66975 | 32191 ft | 389 kts | 308° |
| 2026-04-23 19:10 | 49.47917 | -5.73285 | 32190 ft | 388 kts | 308° |
| 2026-04-23 19:11 | 49.51474 | -5.79552 | 32189 ft | 390 kts | 314° |
| 2026-04-23 19:11 | 49.55848 | -5.84513 | 32188 ft | 392 kts | 323° |
| 2026-04-23 19:12 | 49.59630 | -5.88461 | 32173 ft | 393 kts | 324° |
| 2026-04-23 19:12 | 49.64893 | -5.93992 | 32178 ft | 395 kts | 324° |
| 2026-04-23 19:13 | 49.69433 | -5.98789 | 32170 ft | 395 kts | 323° |
| 2026-04-23 19:13 | 49.73971 | -6.03594 | 32177 ft | 395 kts | 324° |
| 2026-04-23 19:14 | 49.78520 | -6.08425 | 32175 ft | 396 kts | 324° |
| 2026-04-23 19:14 | 49.83065 | -6.13248 | 32187 ft | 396 kts | 324° |
| 2026-04-23 19:15 | 49.87605 | -6.18077 | 32188 ft | 396 kts | 324° |
| 2026-04-23 19:15 | 49.92137 | -6.22917 | 32189 ft | 396 kts | 324° |
| 2026-04-23 19:16 | 49.96667 | -6.27766 | 32191 ft | 395 kts | 324° |
| 2026-04-23 19:16 | 50.01190 | -6.32624 | 32199 ft | 395 kts | 324° |
| 2026-04-23 19:17 | 50.07943 | -6.39883 | 32205 ft | 394 kts | 324° |
| 2026-04-23 19:17 | 50.12465 | -6.44756 | 32181 ft | 396 kts | 323° |
| 2026-04-23 19:18 | 50.17003 | -6.49656 | 32178 ft | 398 kts | 323° |
| 2026-04-23 19:18 | 50.21566 | -6.54596 | 32183 ft | 399 kts | 324° |
| 2026-04-23 19:19 | 50.28411 | -6.62037 | 32201 ft | 399 kts | 322° |
| 2026-04-23 19:20 | 50.35253 | -6.69497 | 32203 ft | 400 kts | 324° |
| 2026-04-23 19:20 | 50.39787 | -6.74457 | 32204 ft | 399 kts | 323° |
| 2026-04-23 19:21 | 50.46617 | -6.81953 | 32209 ft | 399 kts | 323° |
| 2026-04-23 19:22 | 50.51178 | -6.86971 | 32219 ft | 398 kts | 323° |
| 2026-04-23 19:22 | 50.57990 | -6.94483 | 32210 ft | 399 kts | 324° |
| 2026-04-23 19:23 | 50.62499 | -6.99485 | 32215 ft | 398 kts | 323° |
| 2026-04-23 19:24 | 50.69330 | -7.07072 | 32207 ft | 401 kts | 322° |
| 2026-04-23 19:24 | 50.76215 | -7.14743 | 31739 ft | 409 kts | 323° |
| 2026-04-23 19:25 | 50.80827 | -7.19900 | 30885 ft | 407 kts | 323° |
| 2026-04-23 19:25 | 50.85428 | -7.25058 | 29984 ft | 404 kts | 323° |
| 2026-04-23 19:26 | 50.89970 | -7.30160 | 29180 ft | 397 kts | 323° |
| 2026-04-23 19:26 | 50.92215 | -7.32683 | 28813 ft | 394 kts | 324° |
| 2026-04-23 19:27 | 50.96649 | -7.37683 | 28036 ft | 388 kts | 323° |
| 2026-04-23 19:27 | 51.03170 | -7.45066 | 26846 ft | 379 kts | 324° |
| 2026-04-23 19:28 | 51.07437 | -7.49888 | 26036 ft | 374 kts | 324° |
| 2026-04-23 19:28 | 51.11632 | -7.54655 | 25210 ft | 371 kts | 324° |
| 2026-04-23 19:29 | 51.13730 | -7.57049 | 24779 ft | 370 kts | 324° |
| 2026-04-23 19:29 | 51.17909 | -7.61823 | 23909 ft | 368 kts | 324° |
| 2026-04-23 19:30 | 51.22072 | -7.66579 | 22988 ft | 365 kts | 324° |
| 2026-04-23 19:30 | 51.24102 | -7.68895 | 22561 ft | 362 kts | 324° |
| 2026-04-23 19:30 | 51.28165 | -7.73552 | 21707 ft | 357 kts | 323° |
| 2026-04-23 19:31 | 51.30187 | -7.75879 | 21275 ft | 355 kts | 323° |
| 2026-04-23 19:31 | 51.32195 | -7.78191 | 20847 ft | 354 kts | 323° |
| 2026-04-23 19:31 | 51.34186 | -7.80484 | 20426 ft | 352 kts | 324° |
| 2026-04-23 19:31 | 51.36148 | -7.82745 | 20012 ft | 351 kts | 323° |
| 2026-04-23 19:32 | 51.38132 | -7.85033 | 19592 ft | 351 kts | 323° |
| 2026-04-23 19:32 | 51.40105 | -7.87314 | 19159 ft | 350 kts | 323° |
| 2026-04-23 19:32 | 51.42078 | -7.89599 | 18734 ft | 349 kts | 323° |
| 2026-04-23 19:32 | 51.44046 | -7.91883 | 18276 ft | 349 kts | 323° |
| 2026-04-23 19:33 | 51.46009 | -7.94163 | 17854 ft | 346 kts | 323° |
| 2026-04-23 19:33 | 51.47957 | -7.96425 | 17432 ft | 344 kts | 323° |
| 2026-04-23 19:33 | 51.51820 | -8.00914 | 16600 ft | 341 kts | 323° |
| 2026-04-23 19:34 | 51.53715 | -8.03118 | 16190 ft | 340 kts | 323° |
| 2026-04-23 19:34 | 51.55631 | -8.05328 | 15817 ft | 338 kts | 326° |
| 2026-04-23 19:34 | 51.59833 | -8.08611 | 15071 ft | 335 kts | 336° |
| 2026-04-23 19:35 | 51.61988 | -8.10135 | 14698 ft | 334 kts | 336° |
| 2026-04-23 19:35 | 51.64087 | -8.11622 | 14328 ft | 333 kts | 336° |
| 2026-04-23 19:35 | 51.66211 | -8.13127 | 13941 ft | 333 kts | 336° |
| 2026-04-23 19:35 | 51.68333 | -8.14633 | 13369 ft | 337 kts | 336° |
| 2026-04-23 19:36 | 51.70486 | -8.16169 | 12908 ft | 337 kts | 336° |
| 2026-04-23 19:36 | 51.72621 | -8.17695 | 12543 ft | 335 kts | 336° |
| 2026-04-23 19:36 | 51.74721 | -8.19198 | 12385 ft | 325 kts | 336° |
| 2026-04-23 19:36 | 51.76769 | -8.20664 | 12127 ft | 320 kts | 336° |
| 2026-04-23 19:37 | 51.78774 | -8.22101 | 11996 ft | 311 kts | 336° |
| 2026-04-23 19:37 | 51.80724 | -8.23498 | 11876 ft | 302 kts | 336° |
| 2026-04-23 19:37 | 51.82618 | -8.24854 | 11653 ft | 295 kts | 336° |
| 2026-04-23 19:37 | 51.84492 | -8.26199 | 11283 ft | 294 kts | 336° |
| 2026-04-23 19:38 | 51.85730 | -8.27088 | 11037 ft | 293 kts | 336° |
| 2026-04-23 19:38 | 51.87592 | -8.28428 | 10680 ft | 292 kts | 336° |
| 2026-04-23 19:38 | 51.89443 | -8.29764 | 10314 ft | 291 kts | 336° |
| 2026-04-23 19:38 | 51.91292 | -8.31100 | 9939 ft | 290 kts | 337° |
| 2026-04-23 19:39 | 51.93132 | -8.32430 | 9575 ft | 289 kts | 338° |
| 2026-04-23 19:39 | 51.94962 | -8.33751 | 9181 ft | 287 kts | 338° |
| 2026-04-23 19:39 | 51.96784 | -8.35065 | 8825 ft | 285 kts | 338° |
| 2026-04-23 19:39 | 51.98586 | -8.36367 | 8449 ft | 283 kts | 338° |
| 2026-04-23 19:40 | 52.00357 | -8.37650 | 8258 ft | 274 kts | 337° |
| 2026-04-23 19:40 | 52.02078 | -8.38901 | 7958 ft | 270 kts | 338° |
| 2026-04-23 19:40 | 52.03822 | -8.40166 | 7263 ft | 280 kts | 338° |
| 2026-04-23 19:40 | 52.05610 | -8.41462 | 6670 ft | 280 kts | 338° |
| 2026-04-23 19:41 | 52.07354 | -8.42729 | 6291 ft | 269 kts | 338° |
| 2026-04-23 19:41 | 52.08993 | -8.44057 | 6031 ft | 255 kts | 324° |
| 2026-04-23 19:41 | 52.09965 | -8.46226 | 5872 ft | 230 kts | 280° |
| 2026-04-23 19:41 | 52.09985 | -8.48639 | 5742 ft | 207 kts | 255° |
| 2026-04-23 19:42 | 52.09845 | -8.50946 | 5558 ft | 204 kts | 257° |
| 2026-04-23 19:42 | 52.09733 | -8.53239 | 5395 ft | 202 kts | 257° |
| 2026-04-23 19:42 | 52.09633 | -8.55513 | 5240 ft | 202 kts | 258° |
| 2026-04-23 19:42 | 52.09542 | -8.57740 | 5083 ft | 194 kts | 258° |
| 2026-04-23 19:43 | 52.09358 | -8.59867 | 4943 ft | 183 kts | 240° |
| 2026-04-23 19:43 | 52.08666 | -8.61473 | 4795 ft | 166 kts | 209° |
| 2026-04-23 19:43 | 52.07702 | -8.62267 | 4676 ft | 151 kts | 185° |
| 2026-04-23 19:43 | 52.06683 | -8.62293 | 4558 ft | 144 kts | 163° |
| 2026-04-23 19:44 | 52.05737 | -8.61813 | 4441 ft | 141 kts | 156° |
| 2026-04-23 19:44 | 52.04800 | -8.61323 | 4326 ft | 141 kts | 157° |
| 2026-04-23 19:44 | 52.03879 | -8.60844 | 4213 ft | 140 kts | 157° |
| 2026-04-23 19:44 | 52.02958 | -8.60328 | 4054 ft | 139 kts | 155° |
| 2026-04-23 19:45 | 52.02057 | -8.59785 | 3954 ft | 138 kts | 155° |
| 2026-04-23 19:45 | 52.01168 | -8.59248 | 3847 ft | 133 kts | 155° |
| 2026-04-23 19:45 | 52.00324 | -8.58742 | 3703 ft | 127 kts | 154° |
| 2026-04-23 19:45 | 51.99499 | -8.58247 | 3552 ft | 126 kts | 154° |
| 2026-04-23 19:46 | 51.98680 | -8.57758 | 3393 ft | 125 kts | 154° |
| 2026-04-23 19:46 | 51.97865 | -8.57272 | 3230 ft | 125 kts | 154° |
| 2026-04-23 19:46 | 51.97052 | -8.56787 | 3063 ft | 124 kts | 153° |
| 2026-04-23 19:46 | 51.96238 | -8.56302 | 2896 ft | 124 kts | 153° |
| 2026-04-23 19:47 | 51.95429 | -8.55820 | 2728 ft | 123 kts | 152° |
| 2026-04-23 19:47 | 51.94629 | -8.55345 | 2562 ft | 122 kts | 152° |
| 2026-04-23 19:47 | 51.93842 | -8.54876 | 2398 ft | 122 kts | 152° |
| 2026-04-23 19:47 | 51.93045 | -8.54403 | 2227 ft | 122 kts | 152° |
| 2026-04-23 19:48 | 51.92248 | -8.53929 | 2071 ft | 122 kts | 152° |
| 2026-04-23 19:48 | 51.91463 | -8.53464 | 1904 ft | 118 kts | 151° |
| 2026-04-23 19:48 | 51.90698 | -8.53010 | 1740 ft | 116 kts | 151° |
| 2026-04-23 19:48 | 51.89940 | -8.52559 | 1580 ft | 118 kts | 152° |
| 2026-04-23 19:49 | 51.89180 | -8.52109 | 1416 ft | 115 kts | 152° |
| 2026-04-23 19:49 | 51.88431 | -8.51664 | 1261 ft | 114 kts | 152° |
| 2026-04-23 19:49 | 51.87697 | -8.51229 | 1099 ft | 114 kts | 152° |
| 2026-04-23 19:49 | 51.86943 | -8.50781 | 937 ft | 114 kts | 152° |
| 2026-04-23 19:50 | 51.86204 | -8.50343 | 786 ft | 114 kts | 151° |
| 2026-04-23 19:50 | 51.85460 | -8.49901 | 631 ft | 115 kts | 150° |
| 2026-04-23 19:50 | 51.84754 | -8.49456 | 492 ft | 85 kts | 158° |
| 2026-04-23 19:50 | 51.84475 | -8.49299 | 483 ft | 31 kts | 163° |
| 2026-04-23 19:51 | 51.84320 | -8.49188 | 479 ft | 19 kts | 119° |
| 2026-04-23 19:51 | 51.84381 | -8.48996 | 489 ft | 23 kts | 14° |
| 2026-04-23 19:51 | 51.84480 | -8.49033 | 489 ft | 0 kts | 340° |
| 2026-04-23 19:52 | 51.84487 | -8.49037 | 493 ft | 5 kts | 339° |
| 2026-04-23 19:52 | 51.84550 | -8.49077 | 497 ft | 14 kts | 339° |
| 2026-04-23 19:52 | 51.84643 | -8.49135 | 501 ft | 15 kts | 339° |
| 2026-04-23 19:52 | 51.84723 | -8.49159 | 503 ft | 10 kts | 33° |
| 2026-04-23 19:53 | 51.84754 | -8.49047 | 503 ft | 5 kts | 70° |
| 2026-04-23 19:53 | 51.84758 | -8.49026 | 503 ft | 0 kts | 71° |
| 2026-04-23 19:53 | 51.84758 | -8.49029 | 503 ft | 0 kts | 70° |